Terminal Aerodrome Forecast
Issued by NWS Sterling, VA

Current Version | Previous Version | Graphics & Text | Print | Product List | Glossary On
Versions: 1 2 3 4 5 6 7 8 9 10 11 12 13 14 15 16 17 18 19 20 21 22 23 24 25
000
FTUS41 KLWX 170400 AAB
TAFIAD
TAF AMD
KIAD 170441Z 1705/1806 VRB04KT 2SM BR OVC002
     FM170700 26005KT 5SM BR BKN012
     FM170900 27008KT P6SM BKN025
     FM171100 28010KT P6SM SCT045
     FM171500 29012G20KT P6SM SCT045
     FM180000 30008KT P6SM SCT250=

USA.gov is the U.S. government's official web portal to all federal, state and local government web resources and services.